Sault Sainte Marie, MI

7:55 AM EST on January 26, 2015 (GMT -0500)
Mackinac Island | Change Station
CLOSE
Current Station
Airport
Location: Mackinac Island,
Elevation: 741 ft
Nearby Weather Stations

Elev 741 ft 45.87 °N, 84.64 °W | Updated 20 minutes ago

Mostly Cloudy
Mostly Cloudy
11 °F
Feels Like 2 °F
N
5
Wind Variable Wind from SSE

Today
High -- | Low -- °F
--% Chance of Precip.
Yesterday
High -- | Low -- °F
Precip. -- in
8:08 AM 5:32 PM
Waxing Crescent, 43% visible
Pressure 30.00 in
Visibility 10.0 miles
Clouds Clear
Windchill 2 °F
Dew Point 4 °F
Humidity 76%
Rainfall 0.00 in
Snow Depth Not available.
UV 0 out of 12
Pollen .10 out of 12
Air Quality Not available.
Flu Activity Not available.
METAR KMCD 261235Z AUTO 15004KT 10SM CLR M12/M15 A3000 RMK AO2 T11191153

More Conditions Fewer Conditions

Pressure 30.00 in
Visibility 10.0 miles
Clouds Clear
Windchill 2 °F
Dew Point 4 °F
Humidity 76%
Rainfall 0.00 in
Snow Depth Not available.
UV 0 out of 12
Pollen .10 out of 12
Air Quality Not available.
Flu Activity Not available.
METAR KMCD 261235Z AUTO 15004KT 10SM CLR M12/M15 A3000 RMK AO2 T11191153

More Conditions Fewer Conditions

Nowcast | as of 7:00 am EST on January 26, 2015

At 8 am...mostly cloudy. Temperature 9 below. Light winds. At 10 am...mostly cloudy. Temperature 4 above. East winds 7 mph. At 12 PM...mostly cloudy. Temperature 11. Southeast winds 8 mph. At 2 PM...mostly cloudy. Temperature 15. Southeast winds 9 mph.

×

10-Day Weather Forecast

Almanac

Astronomy

Jan. 26, 2015 Rise Set
Actual Time
Civil Twilight
Nautical Twilight
Astronomical Twilight
Moon
Length of Visible Light
Length of Day
Tomorrow will be .
, % of the Moon is Illuminated

Today's Extremes

State Highs State Lows

Community

WunderPhotos

Upload Photos

1,790,175 photos uploaded!

WunderBlogs® & News

Nearby

Air Quality

  Air Quality AQ Index Pollutant
Not available.

Snow Depth

Station Depth Elevation

Earthquake Activity

City Distance Mag. Time & Date
Minimum magnitude displayed is 2.5.

Coastal Water Temperatures

Place Temperature

Nearby Weather Stations